Terminal Aerodrome Forecast
Issued by NWS Louisville, KY

Home | Current Version | Previous Version | Text Only | Print | Product List | Glossary On
Versions: 1 2 3 4 5 6 7 8 9 10 11 12
000
FTUS43 KLMK 281120
TAFSDF
TAF
KSDF 281120Z 2812/2918 VRB03KT P6SM FEW250
     FM281600 17008KT P6SM FEW250
     FM290600 18007KT P6SM FEW250 WS020/22035KT
     FM291300 21009KT P6SM SCT050=

USA.gov is the U.S. government's official web portal to all federal, state and local government web resources and services.